createdAt,value
2023-05-14T00:04:59.824Z,18.73
2023-05-14T00:10:01.794Z,17.85
2023-05-14T00:15:05.754Z,16.67
2023-05-14T00:20:08.253Z,17.02
2023-05-14T00:25:10.372Z,16.65
2023-05-14T00:30:13.804Z,16.05
2023-05-14T00:35:15.481Z,16.02
2023-05-14T00:40:17.133Z,17.15
2023-05-14T00:45:20.857Z,16.12
2023-05-14T00:50:23.256Z,16.60
2023-05-14T00:55:26.328Z,17.10
2023-05-14T01:00:29.430Z,17.95
2023-05-14T01:05:39.407Z,16.00
2023-05-14T01:10:49.741Z,17.23
2023-05-14T01:15:55.951Z,17.33
2023-05-14T01:20:57.693Z,18.87
2023-05-14T01:26:00.664Z,18.42
2023-05-14T01:31:08.061Z,19.52
2023-05-14T01:36:10.283Z,17.42
2023-05-14T01:41:15.342Z,19.75
2023-05-14T01:51:19.675Z,20.45
2023-05-14T01:56:23.759Z,19.08
2023-05-14T02:01:25.405Z,21.20
2023-05-14T02:06:27.220Z,21.10
2023-05-14T02:11:33.287Z,19.30
2023-05-14T02:16:35.003Z,19.27
2023-05-14T02:21:36.736Z,21.23
2023-05-14T02:26:39.854Z,21.62
2023-05-14T02:31:41.538Z,21.17
2023-05-14T02:36:43.353Z,21.37
2023-05-14T02:41:46.332Z,20.88
2023-05-14T02:46:48.007Z,20.98
2023-05-14T02:51:49.709Z,21.10
2023-05-14T02:56:52.784Z,19.75
2023-05-14T03:01:54.584Z,19.08
2023-05-14T03:06:56.708Z,19.65
2023-05-14T03:12:00.407Z,20.10
2023-05-14T03:17:02.333Z,20.52
2023-05-14T03:22:04.649Z,20.37
2023-05-14T03:27:07.791Z,19.50
2023-05-14T03:32:09.463Z,20.85
2023-05-14T03:37:11.216Z,21.17
2023-05-14T03:42:14.317Z,18.80
2023-05-14T03:47:15.957Z,19.15
2023-05-14T03:52:17.672Z,20.83
2023-05-14T03:57:20.710Z,19.85
2023-05-14T04:02:22.581Z,20.17
2023-05-14T04:07:24.293Z,20.80
2023-05-14T04:12:30.700Z,19.55
2023-05-14T04:17:34.507Z,20.77
2023-05-14T04:22:36.689Z,21.03
2023-05-14T04:27:40.223Z,21.35
2023-05-14T04:32:41.930Z,19.73
2023-05-14T04:37:43.599Z,20.83
2023-05-14T04:42:46.651Z,20.95
2023-05-14T04:47:48.687Z,21.58
2023-05-14T04:52:50.455Z,21.33
2023-05-14T04:57:53.571Z,21.35
2023-05-14T05:02:55.381Z,22.40
2023-05-14T05:07:59.604Z,20.55
2023-05-14T05:13:02.667Z,19.87
2023-05-14T05:18:04.435Z,21.90
2023-05-14T05:23:06.211Z,23.02
2023-05-14T05:28:09.270Z,24.02
2023-05-14T05:33:11.453Z,22.87
2023-05-14T05:38:13.173Z,25.35
2023-05-14T05:43:16.513Z,23.92
2023-05-14T05:48:18.133Z,22.30
2023-05-14T05:53:19.822Z,21.92
2023-05-14T05:58:22.861Z,20.98
2023-05-14T06:03:25.023Z,20.83
2023-05-14T06:08:26.842Z,19.05
2023-05-14T06:13:29.895Z,19.98
2023-05-14T06:18:31.655Z,19.45
2023-05-14T06:23:33.815Z,20.08
2023-05-14T06:28:36.868Z,19.87
2023-05-14T06:33:38.684Z,18.40
2023-05-14T06:38:40.424Z,17.27
2023-05-14T06:43:46.129Z,17.17
2023-05-14T06:48:47.933Z,16.73
2023-05-14T06:53:49.686Z,16.85
2023-05-14T06:58:52.714Z,16.10
2023-05-14T07:03:54.530Z,15.80
2023-05-14T07:08:57.527Z,14.93
2023-05-14T07:14:00.593Z,15.23
2023-05-14T07:19:02.316Z,13.68
2023-05-14T07:24:04.610Z,14.85
2023-05-14T07:29:07.635Z,14.70
2023-05-14T07:34:09.323Z,14.45
2023-05-14T07:39:11.017Z,13.88
2023-05-14T07:44:14.114Z,14.82
2023-05-14T07:49:15.880Z,14.90
2023-05-14T07:54:17.624Z,14.82
2023-05-14T07:59:20.884Z,15.18
2023-05-14T08:04:22.796Z,14.95
2023-05-14T08:09:24.584Z,14.63
2023-05-14T08:14:28.054Z,14.43
2023-05-14T08:19:31.746Z,20.00
2023-05-14T08:24:35.871Z,14.45
2023-05-14T08:29:39.304Z,13.62
2023-05-14T08:34:42.771Z,14.57
2023-05-14T08:39:45.961Z,13.65
2023-05-14T08:44:53.700Z,12.50
2023-05-14T08:50:01.388Z,14.02
2023-05-14T08:55:05.836Z,17.33
2023-05-14T09:00:10.454Z,15.93
2023-05-14T09:05:17.149Z,13.70
2023-05-14T09:10:19.043Z,14.27
2023-05-14T09:15:23.427Z,13.25
2023-05-14T09:20:25.869Z,14.93
2023-05-14T09:25:30.823Z,12.90
2023-05-14T09:30:33.997Z,13.35
2023-05-14T09:35:37.714Z,14.38
2023-05-14T09:40:39.426Z,13.10
2023-05-14T09:45:42.806Z,12.27
2023-05-14T09:50:45.618Z,12.93
2023-05-14T09:55:47.488Z,12.70
2023-05-14T10:00:51.601Z,13.20
2023-05-14T10:05:54.534Z,12.88
2023-05-14T10:10:59.177Z,12.43
2023-05-14T10:16:11.169Z,12.50
2023-05-14T10:21:15.211Z,13.88
2023-05-14T10:26:21.252Z,13.50
2023-05-14T10:31:46.119Z,12.88
2023-05-14T10:36:50.856Z,12.35
2023-05-14T10:41:53.011Z,13.38
2023-05-14T10:46:56.891Z,11.95
2023-05-14T10:51:59.124Z,12.20
2023-05-14T10:57:00.903Z,12.70
2023-05-14T11:02:18.560Z,13.82
2023-05-14T11:07:24.364Z,12.13
2023-05-14T11:12:27.039Z,12.43
2023-05-14T11:17:31.186Z,12.18
2023-05-14T11:22:33.245Z,12.88
2023-05-14T11:27:39.149Z,11.57
2023-05-14T11:32:44.183Z,11.82
2023-05-14T11:37:51.396Z,10.45
2023-05-14T11:42:55.619Z,12.35
2023-05-14T11:47:58.835Z,10.77
2023-05-14T11:53:00.738Z,11.60
2023-05-14T11:58:02.657Z,12.80
2023-05-14T12:03:06.374Z,11.57
2023-05-14T12:08:20.501Z,11.95
2023-05-14T12:13:25.038Z,12.00
2023-05-14T12:18:30.498Z,13.68
2023-05-14T12:23:33.012Z,11.77
2023-05-14T12:28:38.416Z,12.18
2023-05-14T12:33:41.879Z,11.90
2023-05-14T12:38:43.988Z,12.93
2023-05-14T12:43:48.206Z,12.65
2023-05-14T12:48:53.355Z,12.15
2023-05-14T12:53:55.383Z,12.45
2023-05-14T12:58:57.135Z,12.10
2023-05-14T13:04:00.295Z,11.57
2023-05-14T13:09:02.039Z,10.20
2023-05-14T13:14:03.841Z,10.68
2023-05-14T13:19:07.193Z,11.73
2023-05-14T13:24:09.050Z,12.18
2023-05-14T13:29:11.294Z,12.40
2023-05-14T13:34:14.333Z,10.95
2023-05-14T13:39:16.117Z,11.85
2023-05-14T13:44:17.901Z,11.68
2023-05-14T13:49:20.979Z,10.35
2023-05-14T13:54:22.771Z,11.25
2023-05-14T13:59:24.617Z,11.50
2023-05-14T14:04:28.047Z,11.05
2023-05-14T14:09:29.788Z,11.45
2023-05-14T14:14:31.451Z,11.48
2023-05-14T14:19:34.534Z,10.18
2023-05-14T14:24:36.197Z,10.68
2023-05-14T14:29:37.892Z,10.60
2023-05-14T14:34:40.928Z,10.93
2023-05-14T14:39:42.729Z,10.55
2023-05-14T14:44:44.528Z,10.40
2023-05-14T14:49:47.676Z,17.10
2023-05-14T14:54:49.527Z,10.85
2023-05-14T14:59:51.293Z,10.38
2023-05-14T15:04:55.144Z,10.38
2023-05-14T15:10:00.405Z,9.65
2023-05-14T15:15:02.136Z,10.35
2023-05-14T15:20:06.525Z,10.52
2023-05-14T15:25:08.937Z,8.73
2023-05-14T15:30:11.793Z,9.60
2023-05-14T15:35:14.970Z,10.18
2023-05-14T15:40:16.763Z,12.25
2023-05-14T15:45:21.622Z,10.82
2023-05-14T15:50:25.040Z,10.45
2023-05-14T15:55:26.918Z,9.95
2023-05-14T16:00:28.650Z,11.20
2023-05-14T16:05:39.200Z,11.05
2023-05-14T16:10:40.949Z,11.50
2023-05-14T16:15:42.675Z,12.13
2023-05-14T16:20:45.993Z,11.15
2023-05-14T16:25:47.737Z,12.27
2023-05-14T16:30:49.460Z,12.37
2023-05-14T16:35:52.577Z,11.88
2023-05-14T16:40:54.379Z,12.75
2023-05-14T16:45:56.165Z,12.82
2023-05-14T16:50:59.331Z,12.23
2023-05-14T16:56:01.268Z,12.35
2023-05-14T17:01:03.116Z,11.82
2023-05-14T17:06:15.746Z,13.25
2023-05-14T17:11:20.545Z,12.70
2023-05-14T17:16:22.528Z,13.50
2023-05-14T17:21:30.177Z,12.68
2023-05-14T17:26:32.026Z,13.05
2023-05-14T17:31:34.323Z,13.48
2023-05-14T17:36:37.529Z,13.57
2023-05-14T17:41:39.264Z,13.25
2023-05-14T17:46:41.088Z,12.80
2023-05-14T17:51:44.461Z,13.18
2023-05-14T17:56:46.291Z,13.07
2023-05-14T18:01:49.724Z,12.63
2023-05-14T18:06:52.822Z,13.68
2023-05-14T18:11:56.776Z,13.00
2023-05-14T18:16:58.770Z,13.00
2023-05-14T18:22:01.988Z,12.43
2023-05-14T18:27:03.964Z,12.02
2023-05-14T18:32:06.435Z,11.75
2023-05-14T18:37:09.720Z,11.75
2023-05-14T18:42:11.516Z,12.77
2023-05-14T18:47:13.268Z,12.63
2023-05-14T18:52:19.437Z,13.27
2023-05-14T18:57:21.589Z,11.45
2023-05-14T19:02:23.644Z,12.32
2023-05-14T19:07:26.989Z,13.07
2023-05-14T19:12:31.829Z,12.75
2023-05-14T19:17:36.629Z,11.93
2023-05-14T19:22:39.853Z,12.52
2023-05-14T19:27:42.000Z,13.13
2023-05-14T19:32:43.872Z,12.98
2023-05-14T19:37:49.459Z,13.07
2023-05-14T19:42:51.361Z,12.85
2023-05-14T19:47:53.379Z,11.48
2023-05-14T19:52:56.664Z,12.80
2023-05-14T19:57:58.371Z,11.98
2023-05-14T20:03:00.226Z,12.70
2023-05-14T20:08:03.491Z,11.90
2023-05-14T20:13:05.243Z,13.95
2023-05-14T20:18:08.399Z,12.65
2023-05-14T20:23:11.389Z,12.40
2023-05-14T20:28:13.038Z,13.38
2023-05-14T20:33:14.805Z,12.90
2023-05-14T20:38:18.066Z,11.55
2023-05-14T20:43:19.717Z,12.60
2023-05-14T20:48:21.525Z,12.52
2023-05-14T20:53:24.586Z,12.43
2023-05-14T20:58:26.372Z,13.23
2023-05-14T21:03:28.262Z,13.30
2023-05-14T21:08:31.502Z,13.45
2023-05-14T21:13:35.342Z,13.15
2023-05-14T21:18:36.986Z,12.95
2023-05-14T21:23:43.110Z,13.07
2023-05-14T21:28:44.747Z,13.70
2023-05-14T21:33:46.443Z,13.30
2023-05-14T21:38:49.514Z,14.57
2023-05-14T21:43:51.206Z,14.05
2023-05-14T21:48:52.955Z,13.45
2023-05-14T21:53:56.296Z,14.50
2023-05-14T21:58:57.948Z,14.50
2023-05-14T22:03:59.619Z,14.07
2023-05-14T22:09:02.893Z,14.40
2023-05-14T22:14:04.662Z,14.87
2023-05-14T22:19:06.816Z,14.77
2023-05-14T22:24:10.025Z,14.52
2023-05-14T22:29:11.685Z,14.82
2023-05-14T22:34:13.468Z,13.35
2023-05-14T22:39:16.659Z,13.75
2023-05-14T22:44:18.306Z,15.30
2023-05-14T22:49:19.985Z,14.98
2023-05-14T22:54:23.009Z,14.10
2023-05-14T22:59:24.721Z,13.95
2023-05-14T23:04:26.487Z,13.50
2023-05-14T23:09:29.695Z,14.60
2023-05-14T23:14:31.434Z,13.82
2023-05-14T23:19:33.352Z,14.43
2023-05-14T23:24:36.348Z,14.80
2023-05-14T23:29:38.127Z,14.95
2023-05-14T23:34:39.833Z,14.43
2023-05-14T23:39:42.893Z,14.43
2023-05-14T23:44:44.694Z,14.98
2023-05-14T23:55:31.881Z,15.73
